메인 페이지
METAR-TAF:

METAR-TAF

공항 :

케언스 공항

케언스, 오스트레일리아

위도: 16-53S, 경도: 145-45E, 고도: 3m

현재 날씨관측

예보는 41분 전, 16:00시(UTC)에 발표되었습니다.
11kt
온도 20°C
습도 78%
기압 1015 hPa
시정 10km 이상
고도 2500ft 상공 구름 조금
고도 3500ft 상공 구름 많음

METAR: YBCS 151600Z 19011KT 9999 FEW025 BKN035 20/16 Q1015 INTER 1700/1900 5000 -SHRA BKN018

시각: 02:41 (16:41 UTC)

예보

예보는 6 시간 34분 전, 10:07시(UTC)에 발표되었습니다.
예보 대상 시간: 15일 10시부터 16일 12시까지 (UTC)
남남동8kt
시정 10km 이상
고도 2500ft 상공 구름 보통
고도 4000ft 상공 구름 보통
약한소나기
16일 0100시부터 (UTC)
동남동14kt
시정 10km 이상
고도 3000ft 상공 구름 조금
16일 0800시부터 (UTC)
남남동8kt
시정: 5000m
고도 2500ft 상공 구름 보통
고도 1800ft 상공 구름 많음
약한소나기

TAF: YBCS 151007Z 1510/1612 15008KT 9999 -SHRA SCT025 SCT040 FM160100 11014KT 9999 FEW030 FM160800 15008KT 9999 SCT025 INTER 1511/1520 5000 -SHRA BKN018

4,000개 이상의 공항 관측 자료 및 예보 (METAR 및 TAF 보고).

지도상에서 검색 가능한 기상관측소가 노란 점과 빨간 점으로 표시되어 있습니다.

기상관측소 명을 보려면 표시 위로 마우스를 이동하세요.

날씨 관측과 예보를 보려면 클릭하세요.

지도 변경 : 확대하려면 엑스 표시가 있는 녹색 버튼, 축소하려면 빼기 표시가 있는 녹색 버튼, 다음 페이지의 지도를 보려면 녹색 화살표를 클릭하세요.


METAR-TAF: